Time;durP1;ratioP1;P1;durP2;ratioP2;P2;SDS_P1;SDS_P2;PMS_P1;PMS_P2;Temp;Humidity;BMP_temperature;BMP_pressure;BME280_temperature;BME280_humidity;BME280_pressure;Samples;Min_cycle;Max_cycle;Signal;HPM_P1;HPM_P2
2021/04/28 00:02:11;;;;;;;26.60;18.00;;;;;;;;;;756663;182;918688;-74
2021/04/28 00:04:36;;;;;;;29.13;15.00;;;;;;;;;;758046;182;925169;-75
2021/04/28 00:07:03;;;;;;;26.07;15.70;;;;;;;;;;760296;182;918436;-74
2021/04/28 00:09:28;;;;;;;27.00;14.37;;;;;;;;;;754551;182;843431;-76
2021/04/28 00:11:53;;;;;;;33.10;16.57;;;;;;;;;;763054;182;627611;-74
2021/04/28 00:14:19;;;;;;;27.20;16.70;;;;;;;;;;752471;182;919413;-73
2021/04/28 00:16:45;;;;;;;32.10;16.77;;;;;;;;;;761258;182;951912;-73
2021/04/28 00:19:11;;;;;;;26.87;17.63;;;;;;;;;;753766;182;919198;-73
2021/04/28 00:21:37;;;;;;;31.70;16.03;;;;;;;;;;751652;182;1012257;-73
2021/04/28 00:24:03;;;;;;;31.23;16.60;;;;;;;;;;760241;182;911027;-72
2021/04/28 00:26:29;;;;;;;29.60;17.53;;;;;;;;;;757341;182;915433;-74
2021/04/28 00:28:55;;;;;;;29.87;17.17;;;;;;;;;;760855;182;919290;-75
2021/04/28 00:31:20;;;;;;;39.00;21.60;;;;;;;;;;744219;182;919219;-74
2021/04/28 00:33:46;;;;;;;31.03;18.20;;;;;;;;;;730680;185;918404;-73
2021/04/28 00:36:12;;;;;;;35.30;23.27;;;;;;;;;;743150;186;918718;-73
2021/04/28 00:38:38;;;;;;;28.47;17.17;;;;;;;;;;757188;182;917611;-74
2021/04/28 00:41:05;;;;;;;28.20;17.83;;;;;;;;;;757975;181;918665;-72
2021/04/28 00:43:30;;;;;;;34.87;20.60;;;;;;;;;;750575;181;919554;-75
2021/04/28 00:45:57;;;;;;;23.67;17.43;;;;;;;;;;755259;182;925045;-74
2021/04/28 00:48:22;;;;;;;26.30;17.30;;;;;;;;;;757999;181;919791;-74
2021/04/28 00:50:49;;;;;;;27.03;15.97;;;;;;;;;;750654;183;919767;-74
2021/04/28 00:53:14;;;;;;;31.08;19.80;;;;;;;;;;749826;182;2036653;-74
2021/04/28 00:55:40;;;;;;;41.53;23.43;;;;;;;;;;762469;182;918952;-74
2021/04/28 00:58:05;;;;;;;37.97;21.95;;;;;;;;;;754402;182;917722;-73
2021/04/28 01:00:31;;;;;;;43.63;26.77;;;;;;;;;;755756;182;919346;-75
2021/04/28 01:02:57;;;;;;;33.15;21.17;;;;;;;;;;758191;182;916948;-75
2021/04/28 01:05:23;;;;;;;32.33;17.80;;;;;;;;;;751416;181;918612;-74
2021/04/28 01:07:49;;;;;;;33.13;17.03;;;;;;;;;;751331;182;919963;-74
2021/04/28 01:10:23;;;;;;;26.37;16.70;;;;;;;;;;756394;181;917930;-74
2021/04/28 01:12:49;;;;;;;42.13;18.97;;;;;;;;;;753910;182;918804;-74
2021/04/28 01:15:15;;;;;;;24.77;16.37;;;;;;;;;;743419;185;920095;-74
2021/04/28 01:17:41;;;;;;;24.27;14.80;;;;;;;;;;737293;186;1769849;-74
2021/04/28 01:20:07;;;;;;;22.63;13.53;;;;;;;;;;745979;185;918399;-72
2021/04/28 01:22:34;;;;;;;23.03;15.20;;;;;;;;;;720325;192;918616;-75
2021/04/28 01:25:00;;;;;;;28.77;15.40;;;;;;;;;;753467;182;920777;-73
2021/04/28 01:27:26;;;;;;;26.77;15.70;;;;;;;;;;754402;182;924537;-74
2021/04/28 01:29:51;;;;;;;24.13;15.90;;;;;;;;;;756696;182;916451;-74
2021/04/28 01:32:17;;;;;;;24.33;14.80;;;;;;;;;;753138;181;913710;-73
2021/04/28 01:34:43;;;;;;;29.20;15.57;;;;;;;;;;755077;182;919262;-75
2021/04/28 01:37:09;;;;;;;32.80;16.67;;;;;;;;;;754926;185;909696;-73
2021/04/28 01:39:35;;;;;;;26.23;15.93;;;;;;;;;;740766;185;821139;-74
2021/04/28 01:42:01;;;;;;;25.25;15.25;;;;;;;;;;743780;185;1015731;-75
2021/04/28 01:44:27;;;;;;;25.58;15.43;;;;;;;;;;747008;186;914676;-73
2021/04/28 01:46:53;;;;;;;28.57;17.40;;;;;;;;;;744836;184;913106;-73
2021/04/28 01:49:19;;;;;;;27.70;15.55;;;;;;;;;;756897;182;913081;-73
2021/04/28 01:51:44;;;;;;;26.60;15.60;;;;;;;;;;754821;182;919551;-73
2021/04/28 01:54:10;;;;;;;23.90;15.53;;;;;;;;;;758938;182;919529;-73
2021/04/28 01:56:36;;;;;;;24.43;15.97;;;;;;;;;;754740;182;909770;-74
2021/04/28 01:59:05;;;;;;;27.15;17.08;;;;;;;;;;752448;182;1141577;-75
2021/04/28 02:01:31;;;;;;;24.20;15.00;;;;;;;;;;761396;181;919408;-73
2021/04/28 02:03:57;;;;;;;21.33;15.13;;;;;;;;;;758352;182;843511;-75
2021/04/28 02:06:23;;;;;;;23.20;15.57;;;;;;;;;;753125;182;999987;-74
2021/04/28 02:08:48;;;;;;;27.60;16.37;;;;;;;;;;756914;181;1021744;-73
2021/04/28 02:11:14;;;;;;;23.93;15.50;;;;;;;;;;755652;182;855780;-75
2021/04/28 02:13:40;;;;;;;18.63;11.83;;;;;;;;;;750134;182;919847;-74
2021/04/28 02:16:06;;;;;;;22.30;16.87;;;;;;;;;;755577;182;628990;-74
2021/04/28 02:18:33;;;;;;;24.53;14.77;;;;;;;;;;762980;182;625166;-74
2021/04/28 02:21:01;;;;;;;26.80;16.30;;;;;;;;;;753978;182;916367;-74
2021/04/28 02:23:27;;;;;;;24.50;15.63;;;;;;;;;;761601;182;642540;-75
2021/04/28 02:25:54;;;;;;;20.87;14.47;;;;;;;;;;763646;181;923273;-74
2021/04/28 02:28:19;;;;;;;27.03;15.60;;;;;;;;;;739603;185;929972;-72
2021/04/28 02:30:45;;;;;;;25.20;15.70;;;;;;;;;;738916;186;918591;-74
2021/04/28 02:33:11;;;;;;;22.97;14.57;;;;;;;;;;731971;188;919865;-75
2021/04/28 02:35:37;;;;;;;27.40;13.50;;;;;;;;;;740441;186;918554;-72
2021/04/28 02:38:05;;;;;;;32.70;15.13;;;;;;;;;;741967;186;920070;-75
2021/04/28 02:40:32;;;;;;;26.30;14.93;;;;;;;;;;740494;186;916531;-73
2021/04/28 02:42:58;;;;;;;26.53;14.83;;;;;;;;;;748323;184;918055;-73
2021/04/28 02:45:24;;;;;;;26.90;14.57;;;;;;;;;;758078;182;915357;-72
2021/04/28 02:47:50;;;;;;;23.13;15.10;;;;;;;;;;731698;182;3968542;-75
2021/04/28 02:50:17;;;;;;;24.30;14.40;;;;;;;;;;762610;181;913924;-75
2021/04/28 02:52:42;;;;;;;22.20;13.47;;;;;;;;;;753436;182;919382;-74
2021/04/28 02:55:09;;;;;;;24.90;15.73;;;;;;;;;;749346;185;918459;-73
2021/04/28 02:57:34;;;;;;;23.35;15.02;;;;;;;;;;743511;186;921839;-72
2021/04/28 03:00:00;;;;;;;29.10;15.53;;;;;;;;;;746237;186;918807;-73
2021/04/28 03:02:26;;;;;;;24.67;12.75;;;;;;;;;;750107;182;1020801;-72
2021/04/28 03:04:52;;;;;;;25.62;15.38;;;;;;;;;;759438;182;919084;-73
2021/04/28 03:07:18;;;;;;;23.12;14.80;;;;;;;;;;759173;182;632107;-73
2021/04/28 03:09:44;;;;;;;27.00;15.40;;;;;;;;;;743785;185;919001;-73
2021/04/28 03:12:09;;;;;;;33.35;17.95;;;;;;;;;;741033;185;1016304;-72
2021/04/28 03:14:35;;;;;;;31.73;14.80;;;;;;;;;;748083;186;936288;-73
2021/04/28 03:17:01;;;;;;;28.23;16.20;;;;;;;;;;760002;181;919328;-73
2021/04/28 03:19:28;;;;;;;29.35;15.45;;;;;;;;;;757070;182;919499;-73
2021/04/28 03:21:54;;;;;;;25.60;15.77;;;;;;;;;;759125;182;919208;-74
2021/04/28 03:24:21;;;;;;;26.50;16.65;;;;;;;;;;756241;182;918957;-73
2021/04/28 03:26:46;;;;;;;33.33;17.10;;;;;;;;;;760049;181;918907;-73
2021/04/28 03:29:11;;;;;;;36.27;18.77;;;;;;;;;;752456;181;918138;-74
2021/04/28 03:31:37;;;;;;;30.27;19.03;;;;;;;;;;760628;182;917846;-73
2021/04/28 03:34:04;;;;;;;31.43;17.73;;;;;;;;;;747560;182;918999;-73
2021/04/28 03:36:30;;;;;;;28.37;16.27;;;;;;;;;;748961;182;918981;-72
2021/04/28 03:38:56;;;;;;;28.53;17.10;;;;;;;;;;753541;181;919081;-73
2021/04/28 03:41:23;;;;;;;34.47;17.00;;;;;;;;;;750781;182;919660;-76
2021/04/28 03:43:47;;;;;;;25.67;16.07;;;;;;;;;;751596;181;852881;-73
2021/04/28 03:46:13;;;;;;;29.20;16.27;;;;;;;;;;757024;182;919108;-72
2021/04/28 03:48:39;;;;;;;29.87;15.87;;;;;;;;;;755448;181;919472;-72
2021/04/28 03:51:05;;;;;;;28.50;15.83;;;;;;;;;;752377;182;1030669;-74
2021/04/28 03:53:31;;;;;;;23.28;16.32;;;;;;;;;;737336;184;2760626;-73
2021/04/28 03:55:57;;;;;;;37.47;15.93;;;;;;;;;;744966;186;919116;-73
2021/04/28 03:58:22;;;;;;;20.57;12.73;;;;;;;;;;760378;182;916751;-75
2021/04/28 04:00:48;;;;;;;38.47;15.33;;;;;;;;;;756415;182;918702;-73
2021/04/28 04:03:14;;;;;;;26.17;16.23;;;;;;;;;;764622;181;918772;-73
2021/04/28 04:05:40;;;;;;;25.30;16.17;;;;;;;;;;746521;182;918964;-74
2021/04/28 04:08:06;;;;;;;29.33;16.93;;;;;;;;;;743608;186;919091;-72
2021/04/28 04:10:32;;;;;;;27.87;17.90;;;;;;;;;;746875;186;918435;-71
2021/04/28 04:12:58;;;;;;;28.53;18.03;;;;;;;;;;750372;184;918764;-72
2021/04/28 04:15:24;;;;;;;33.70;18.83;;;;;;;;;;761328;181;919485;-73
2021/04/28 04:17:50;;;;;;;36.83;17.77;;;;;;;;;;763146;181;909476;-71
2021/04/28 04:20:16;;;;;;;29.43;17.60;;;;;;;;;;756682;182;919253;-72
2021/04/28 04:22:42;;;;;;;38.78;17.15;;;;;;;;;;753074;182;918704;-74
2021/04/28 04:25:08;;;;;;;33.33;17.90;;;;;;;;;;752819;182;916979;-75
2021/04/28 04:27:34;;;;;;;32.53;16.70;;;;;;;;;;760549;182;911424;-73
2021/04/28 04:30:00;;;;;;;31.58;19.30;;;;;;;;;;754269;182;935584;-73
2021/04/28 04:32:26;;;;;;;32.40;17.07;;;;;;;;;;752999;182;919089;-74
2021/04/28 04:34:51;;;;;;;42.23;20.87;;;;;;;;;;759198;182;922938;-73
2021/04/28 04:37:17;;;;;;;29.93;17.43;;;;;;;;;;751026;182;955810;-75
2021/04/28 04:39:43;;;;;;;29.93;18.00;;;;;;;;;;755142;182;921109;-75
2021/04/28 04:42:10;;;;;;;27.07;17.20;;;;;;;;;;753925;182;940862;-76
2021/04/28 04:44:35;;;;;;;33.20;20.13;;;;;;;;;;759059;182;919111;-74
2021/04/28 04:47:01;;;;;;;54.35;18.95;;;;;;;;;;752436;182;919238;-74
2021/04/28 04:49:27;;;;;;;30.27;19.47;;;;;;;;;;756409;182;919155;-73
2021/04/28 04:51:52;;;;;;;36.73;21.07;;;;;;;;;;759963;182;918404;-73
2021/04/28 04:54:18;;;;;;;42.60;19.90;;;;;;;;;;755932;182;872686;-75
2021/04/28 04:56:44;;;;;;;34.33;19.80;;;;;;;;;;752515;182;919112;-75
2021/04/28 04:59:10;;;;;;;46.63;20.75;;;;;;;;;;760944;182;917130;-72
2021/04/28 05:01:37;;;;;;;39.50;18.70;;;;;;;;;;752887;181;920871;-75
2021/04/28 05:04:02;;;;;;;39.93;21.50;;;;;;;;;;754629;181;1087939;-75
2021/04/28 05:06:27;;;;;;;40.97;20.83;;;;;;;;;;755899;181;918728;-75
2021/04/28 05:08:53;;;;;;;40.90;23.23;;;;;;;;;;758122;182;759391;-75
2021/04/28 05:11:22;;;;;;;44.22;24.75;;;;;;;;;;743339;185;918679;-74
2021/04/28 05:13:48;;;;;;;40.47;23.63;;;;;;;;;;740182;185;913684;-74
2021/04/28 05:16:14;;;;;;;50.83;24.00;;;;;;;;;;750187;185;812746;-74
2021/04/28 05:18:40;;;;;;;28.07;18.87;;;;;;;;;;739137;185;919920;-73
2021/04/28 05:21:06;;;;;;;39.40;21.23;;;;;;;;;;735803;185;817125;-75
2021/04/28 05:23:31;;;;;;;44.08;24.77;;;;;;;;;;744096;186;799965;-74
2021/04/28 05:25:57;;;;;;;79.07;39.47;;;;;;;;;;755268;182;917849;-75
2021/04/28 05:28:23;;;;;;;58.43;32.93;;;;;;;;;;753659;182;1019626;-73
2021/04/28 05:30:49;;;;;;;54.50;33.83;;;;;;;;;;756018;182;917127;-75
2021/04/28 05:33:15;;;;;;;59.63;45.27;;;;;;;;;;754083;184;913380;-75
2021/04/28 05:35:41;;;;;;;45.38;27.20;;;;;;;;;;749406;182;908080;-76
2021/04/28 05:38:07;;;;;;;50.77;27.80;;;;;;;;;;748091;183;911697;-76
2021/04/28 05:40:33;;;;;;;42.80;28.70;;;;;;;;;;761030;182;910626;-75
2021/04/28 05:42:59;;;;;;;39.70;25.10;;;;;;;;;;747629;182;1210527;-74
2021/04/28 05:45:24;;;;;;;55.63;32.43;;;;;;;;;;756217;182;904692;-74
2021/04/28 05:47:51;;;;;;;46.67;29.17;;;;;;;;;;756012;181;1225882;-73
2021/04/28 05:50:17;;;;;;;48.53;26.70;;;;;;;;;;758357;182;917963;-71
2021/04/28 05:52:43;;;;;;;45.90;24.37;;;;;;;;;;759581;182;917789;-72
2021/04/28 05:55:11;;;;;;;39.47;24.50;;;;;;;;;;758972;182;922719;-73
2021/04/28 05:57:37;;;;;;;40.73;23.40;;;;;;;;;;749870;184;815933;-74
2021/04/28 06:00:04;;;;;;;46.77;24.27;;;;;;;;;;754414;182;815457;-76
2021/04/28 06:02:29;;;;;;;38.73;21.03;;;;;;;;;;759263;182;920026;-74
2021/04/28 06:04:55;;;;;;;41.27;23.40;;;;;;;;;;754906;182;866920;-74
2021/04/28 06:07:21;;;;;;;41.70;24.83;;;;;;;;;;749840;182;919226;-75
2021/04/28 06:09:47;;;;;;;38.53;23.77;;;;;;;;;;752117;182;918182;-75
2021/04/28 06:12:13;;;;;;;43.37;24.37;;;;;;;;;;760376;182;918355;-75
2021/04/28 06:14:39;;;;;;;53.43;30.13;;;;;;;;;;753579;182;919031;-75
2021/04/28 06:17:05;;;;;;;58.13;35.50;;;;;;;;;;751631;182;916225;-74
2021/04/28 06:19:30;;;;;;;53.30;27.67;;;;;;;;;;754427;182;915581;-76
2021/04/28 06:21:56;;;;;;;49.63;27.83;;;;;;;;;;755294;184;927250;-77
2021/04/28 06:24:22;;;;;;;52.60;29.73;;;;;;;;;;749761;181;919085;-75
2021/04/28 06:26:48;;;;;;;59.10;31.03;;;;;;;;;;756463;182;693188;-75
2021/04/28 06:29:14;;;;;;;72.87;34.30;;;;;;;;;;759788;182;810712;-74
2021/04/28 06:31:39;;;;;;;52.87;30.13;;;;;;;;;;751710;182;962766;-74
2021/04/28 06:34:05;;;;;;;55.97;30.00;;;;;;;;;;755029;182;1022304;-76
2021/04/28 06:36:31;;;;;;;64.33;35.87;;;;;;;;;;760289;181;713570;-76
2021/04/28 06:38:57;;;;;;;87.60;45.10;;;;;;;;;;755743;182;917616;-75
2021/04/28 06:41:23;;;;;;;63.77;37.67;;;;;;;;;;755116;182;918889;-77
2021/04/28 06:43:49;;;;;;;65.60;36.57;;;;;;;;;;760789;182;917675;-74
2021/04/28 06:46:14;;;;;;;65.90;34.33;;;;;;;;;;753158;182;918144;-76
2021/04/28 06:48:42;;;;;;;45.33;25.35;;;;;;;;;;754250;182;1073306;-74
2021/04/28 06:51:08;;;;;;;72.87;37.90;;;;;;;;;;751853;182;919086;-75
2021/04/28 06:53:34;;;;;;;70.47;34.87;;;;;;;;;;758411;182;919304;-74
2021/04/28 06:56:00;;;;;;;95.00;44.73;;;;;;;;;;751752;182;919687;-74
2021/04/28 06:58:27;;;;;;;38.58;22.05;;;;;;;;;;752880;182;1020515;-74
2021/04/28 07:00:52;;;;;;;62.27;29.70;;;;;;;;;;767217;182;632799;-75
2021/04/28 07:03:18;;;;;;;52.80;24.80;;;;;;;;;;746887;181;816008;-78
2021/04/28 07:05:43;;;;;;;187.63;70.30;;;;;;;;;;753304;182;919975;-74
2021/04/28 07:08:09;;;;;;;97.07;42.87;;;;;;;;;;755924;181;927384;-73
2021/04/28 07:10:35;;;;;;;34.90;21.27;;;;;;;;;;756673;182;919353;-80
2021/04/28 07:13:01;;;;;;;30.73;15.07;;;;;;;;;;757717;181;914004;-75
2021/04/28 07:15:27;;;;;;;23.07;11.90;;;;;;;;;;740809;186;918847;-74
2021/04/28 07:17:53;;;;;;;26.27;12.30;;;;;;;;;;734535;188;917541;-73
2021/04/28 07:20:18;;;;;;;26.63;15.80;;;;;;;;;;760308;182;917676;-73
2021/04/28 07:22:44;;;;;;;28.37;16.23;;;;;;;;;;754534;182;918957;-75
2021/04/28 07:25:11;;;;;;;18.93;9.77;;;;;;;;;;761034;182;917760;-74
2021/04/28 07:27:36;;;;;;;21.00;10.63;;;;;;;;;;750878;183;919509;-75
2021/04/28 07:30:03;;;;;;;23.20;10.27;;;;;;;;;;753972;183;928139;-74
2021/04/28 07:32:29;;;;;;;19.87;12.47;;;;;;;;;;759184;182;920763;-73
2021/04/28 07:34:55;;;;;;;16.97;10.50;;;;;;;;;;759736;182;919366;-73
2021/04/28 07:37:21;;;;;;;16.92;11.50;;;;;;;;;;752530;181;1639182;-74
2021/04/28 07:39:47;;;;;;;17.97;11.20;;;;;;;;;;751927;182;915858;-72
2021/04/28 07:42:13;;;;;;;16.53;10.97;;;;;;;;;;754568;184;915997;-77
2021/04/28 07:44:39;;;;;;;26.77;15.10;;;;;;;;;;740771;185;916435;-73
2021/04/28 07:47:05;;;;;;;12.47;5.03;;;;;;;;;;746012;185;915536;-74
2021/04/28 07:49:31;;;;;;;10.30;4.93;;;;;;;;;;750515;186;625754;-75
2021/04/28 07:51:57;;;;;;;7.27;4.87;;;;;;;;;;760020;181;653716;-76
2021/04/28 07:54:23;;;;;;;11.87;7.10;;;;;;;;;;750907;182;765717;-74
2021/04/28 07:56:48;;;;;;;9.57;6.53;;;;;;;;;;749497;185;917283;-75
2021/04/28 07:59:14;;;;;;;9.37;6.17;;;;;;;;;;741279;186;1191871;-75
2021/04/28 08:01:40;;;;;;;8.07;5.60;;;;;;;;;;753408;182;1238393;-73
2021/04/28 08:04:07;;;;;;;8.27;5.10;;;;;;;;;;756684;181;1123789;-74
2021/04/28 08:06:33;;;;;;;13.43;4.97;;;;;;;;;;757314;184;919103;-73
2021/04/28 08:08:58;;;;;;;8.73;4.33;;;;;;;;;;743911;182;1020744;-75
2021/04/28 08:11:25;;;;;;;10.90;5.10;;;;;;;;;;739831;186;919357;-70
2021/04/28 08:13:50;;;;;;;8.80;4.43;;;;;;;;;;756863;181;889853;-73
2021/04/28 08:16:16;;;;;;;6.60;3.77;;;;;;;;;;753784;182;919306;-78
2021/04/28 08:18:42;;;;;;;6.33;3.93;;;;;;;;;;752489;182;918377;-77
2021/04/28 08:21:08;;;;;;;7.67;4.83;;;;;;;;;;758625;182;918386;-74
2021/04/28 08:23:41;;;;;;;7.03;3.93;;;;;;;;;;755968;182;919098;-75
2021/04/28 08:26:02;;;;;;;6.20;3.90;;;;;;;;;;751529;182;919345;-73
2021/04/28 08:28:27;;;;;;;7.17;3.67;;;;;;;;;;753809;182;919525;-72
2021/04/28 08:30:53;;;;;;;7.00;4.10;;;;;;;;;;754827;182;918858;-72
2021/04/28 08:33:19;;;;;;;8.53;4.37;;;;;;;;;;752838;182;918398;-68
2021/04/28 08:35:45;;;;;;;8.35;4.47;;;;;;;;;;753334;182;919512;-74
2021/04/28 08:38:11;;;;;;;8.00;4.03;;;;;;;;;;765022;181;666166;-76
2021/04/28 08:40:36;;;;;;;5.40;3.87;;;;;;;;;;754864;182;901981;-72
2021/04/28 08:43:02;;;;;;;8.90;5.53;;;;;;;;;;754802;182;920624;-73
2021/04/28 08:45:28;;;;;;;5.40;3.50;;;;;;;;;;758542;181;920376;-74
2021/04/28 08:47:55;;;;;;;6.00;4.10;;;;;;;;;;755132;182;919046;-73
2021/04/28 08:50:21;;;;;;;7.20;4.30;;;;;;;;;;755182;180;920044;-75
2021/04/28 08:52:48;;;;;;;7.47;4.60;;;;;;;;;;758832;182;918746;-73
2021/04/28 08:55:14;;;;;;;5.90;4.30;;;;;;;;;;754472;181;914561;-74
2021/04/28 08:57:39;;;;;;;6.87;4.30;;;;;;;;;;755439;180;914098;-71
2021/04/28 09:00:06;;;;;;;6.87;3.97;;;;;;;;;;758865;182;910413;-74
2021/04/28 09:02:32;;;;;;;6.60;3.93;;;;;;;;;;761702;182;808941;-74
2021/04/28 09:05:04;;;;;;;7.75;4.20;;;;;;;;;;760185;182;913459;-74
2021/04/28 09:07:30;;;;;;;8.77;4.33;;;;;;;;;;747249;182;1859321;-77
2021/04/28 09:09:59;;;;;;;6.85;3.83;;;;;;;;;;755875;182;919155;-71
2021/04/28 09:12:25;;;;;;;8.37;4.93;;;;;;;;;;753354;182;832285;-74
2021/04/28 09:14:52;;;;;;;5.63;3.53;;;;;;;;;;753673;182;739912;-74
2021/04/28 09:17:17;;;;;;;7.43;4.90;;;;;;;;;;752638;181;918944;-75
2021/04/28 09:19:51;;;;;;;6.77;4.00;;;;;;;;;;763554;181;918452;-73
2021/04/28 09:22:10;;;;;;;8.25;4.97;;;;;;;;;;751583;182;628306;-75
2021/04/28 09:24:34;;;;;;;7.70;4.47;;;;;;;;;;748298;186;623573;-76
2021/04/28 09:27:00;;;;;;;6.60;4.37;;;;;;;;;;732992;188;919169;-75
2021/04/28 09:29:26;;;;;;;7.27;4.03;;;;;;;;;;749327;184;817345;-75
2021/04/28 09:31:53;;;;;;;7.87;4.75;;;;;;;;;;730543;190;803061;-73
2021/04/28 09:34:19;;;;;;;6.60;4.40;;;;;;;;;;725078;190;943477;-75
2021/04/28 09:36:45;;;;;;;8.27;4.17;;;;;;;;;;758515;182;919551;-75
2021/04/28 09:39:10;;;;;;;6.57;4.40;;;;;;;;;;756370;182;1020865;-71
2021/04/28 09:41:38;;;;;;;6.37;4.47;;;;;;;;;;757260;182;918593;-75
2021/04/28 09:44:19;;;;;;;5.80;3.60;;;;;;;;;;758691;182;1016008;-74
2021/04/28 09:46:50;;;;;;;6.23;4.30;;;;;;;;;;752128;184;920244;-74
2021/04/28 09:49:16;;;;;;;7.13;5.10;;;;;;;;;;743647;185;918415;-74
2021/04/28 09:51:42;;;;;;;9.10;4.10;;;;;;;;;;743092;186;919365;-73
2021/04/28 09:54:13;;;;;;;7.33;4.30;;;;;;;;;;745460;182;914764;-74
2021/04/28 09:56:39;;;;;;;6.50;3.93;;;;;;;;;;761883;182;918868;-73
2021/04/28 09:59:04;;;;;;;6.73;4.23;;;;;;;;;;742238;185;919255;-75
2021/04/28 10:01:31;;;;;;;9.33;3.83;;;;;;;;;;743168;185;922905;-73
2021/04/28 10:03:57;;;;;;;8.17;4.00;;;;;;;;;;748061;186;777766;-74
2021/04/28 10:06:29;;;;;;;5.87;4.33;;;;;;;;;;746677;184;920171;-74
2021/04/28 10:08:54;;;;;;;8.30;3.50;;;;;;;;;;750656;186;618341;-74
2021/04/28 10:11:20;;;;;;;7.20;4.40;;;;;;;;;;745887;185;919057;-72
2021/04/28 10:13:46;;;;;;;10.03;4.87;;;;;;;;;;748562;185;774508;-73
2021/04/28 10:16:12;;;;;;;5.90;3.80;;;;;;;;;;752033;185;919371;-73
2021/04/28 10:18:38;;;;;;;10.50;3.90;;;;;;;;;;747577;185;918688;-74
2021/04/28 10:21:04;;;;;;;5.90;4.07;;;;;;;;;;746193;185;917355;-74
2021/04/28 10:23:31;;;;;;;5.57;3.70;;;;;;;;;;748083;184;915784;-73
2021/04/28 10:25:56;;;;;;;10.13;4.00;;;;;;;;;;750412;182;919334;-73
2021/04/28 10:28:22;;;;;;;7.87;3.63;;;;;;;;;;759788;182;1722912;-73
2021/04/28 10:30:48;;;;;;;5.27;3.80;;;;;;;;;;749504;182;918616;-74
2021/04/28 10:33:14;;;;;;;5.30;3.13;;;;;;;;;;741239;186;918337;-73
2021/04/28 10:35:40;;;;;;;6.00;3.07;;;;;;;;;;742748;185;655973;-73
2021/04/28 10:38:06;;;;;;;7.10;3.87;;;;;;;;;;749441;184;917470;-76
2021/04/28 10:40:32;;;;;;;6.17;4.37;;;;;;;;;;759703;182;918872;-73
2021/04/28 10:43:04;;;;;;;8.10;4.90;;;;;;;;;;744823;186;912088;-75
2021/04/28 10:45:37;;;;;;;5.60;3.67;;;;;;;;;;740935;186;930508;-72
2021/04/28 10:47:56;;;;;;;7.70;3.87;;;;;;;;;;746235;186;618495;-74
2021/04/28 10:50:23;;;;;;;8.70;4.20;;;;;;;;;;735596;186;912065;-71
2021/04/28 10:52:53;;;;;;;7.17;3.90;;;;;;;;;;751851;182;912141;-71
2021/04/28 10:55:21;;;;;;;5.30;3.57;;;;;;;;;;755787;182;912468;-72
2021/04/28 10:57:47;;;;;;;6.87;4.27;;;;;;;;;;759734;182;908960;-71
2021/04/28 11:00:26;;;;;;;4.63;3.27;;;;;;;;;;753829;182;1075862;-74
2021/04/28 11:02:52;;;;;;;10.33;4.40;;;;;;;;;;759270;182;816593;-74
2021/04/28 11:05:21;;;;;;;12.23;4.60;;;;;;;;;;758390;182;918920;-73
2021/04/28 11:07:47;;;;;;;6.65;4.28;;;;;;;;;;757499;182;918739;-73
2021/04/28 11:10:19;;;;;;;7.00;3.83;;;;;;;;;;747261;185;902407;-74
2021/04/28 11:13:01;;;;;;;4.47;3.50;;;;;;;;;;748929;184;628312;-73
2021/04/28 11:15:33;;;;;;;5.77;3.10;;;;;;;;;;758841;182;632557;-75
2021/04/28 11:18:05;;;;;;;6.60;3.70;;;;;;;;;;758638;182;919596;-72
2021/04/28 11:20:31;;;;;;;6.90;4.20;;;;;;;;;;754375;182;918241;-74
2021/04/28 11:22:57;;;;;;;8.82;3.65;;;;;;;;;;746399;182;919554;-72
2021/04/28 11:25:23;;;;;;;8.23;3.77;;;;;;;;;;750261;182;919272;-71
2021/04/28 11:27:53;;;;;;;5.20;3.30;;;;;;;;;;749133;185;921676;-71
2021/04/28 11:30:33;;;;;;;5.47;3.60;;;;;;;;;;750572;182;919451;-72
2021/04/28 11:33:04;;;;;;;4.87;3.47;;;;;;;;;;747945;182;919451;-72
2021/04/28 11:35:30;;;;;;;6.63;3.63;;;;;;;;;;757076;182;918773;-74
2021/04/28 11:38:02;;;;;;;6.87;3.50;;;;;;;;;;752649;182;919046;-73
2021/04/28 11:40:28;;;;;;;5.83;3.53;;;;;;;;;;762093;182;919315;-71
2021/04/28 11:42:54;;;;;;;11.13;3.87;;;;;;;;;;749710;182;1709700;-69
2021/04/28 11:45:19;;;;;;;11.70;3.70;;;;;;;;;;755881;182;976248;-72
2021/04/28 11:47:45;;;;;;;5.13;3.47;;;;;;;;;;748963;182;918107;-72
2021/04/28 11:50:11;;;;;;;6.43;3.27;;;;;;;;;;749346;184;919350;-72
2021/04/28 11:52:37;;;;;;;8.73;3.20;;;;;;;;;;748781;182;916983;-71
2021/04/28 11:55:03;;;;;;;5.95;3.55;;;;;;;;;;758350;182;918808;-71
2021/04/28 11:57:29;;;;;;;4.20;3.10;;;;;;;;;;761176;182;918229;-70
2021/04/28 12:00:01;;;;;;;4.63;2.87;;;;;;;;;;758295;182;816887;-70
2021/04/28 12:02:27;;;;;;;4.90;3.07;;;;;;;;;;754075;182;921051;-72
2021/04/28 12:04:53;;;;;;;5.37;3.33;;;;;;;;;;760397;182;919311;-71
2021/04/28 12:07:20;;;;;;;5.43;3.67;;;;;;;;;;755225;182;920248;-72
2021/04/28 12:09:48;;;;;;;6.80;3.40;;;;;;;;;;740131;185;919599;-72
2021/04/28 12:12:14;;;;;;;8.47;3.90;;;;;;;;;;741477;186;918505;-71
2021/04/28 12:14:39;;;;;;;4.90;3.00;;;;;;;;;;733267;189;918787;-72
2021/04/28 12:17:07;;;;;;;5.50;3.03;;;;;;;;;;741128;184;919270;-71
2021/04/28 12:19:33;;;;;;;6.60;3.17;;;;;;;;;;741730;184;919206;-72
2021/04/28 12:22:02;;;;;;;10.70;3.10;;;;;;;;;;744562;185;919988;-74
2021/04/28 12:24:27;;;;;;;4.90;3.80;;;;;;;;;;738351;186;917669;-73
2021/04/28 12:26:58;;;;;;;7.20;3.63;;;;;;;;;;746668;184;920131;-71
2021/04/28 12:29:24;;;;;;;5.47;3.10;;;;;;;;;;745060;184;1092060;-72
2021/04/28 12:31:50;;;;;;;5.50;3.80;;;;;;;;;;763264;182;918972;-72
2021/04/28 12:34:16;;;;;;;6.70;4.17;;;;;;;;;;759024;181;618982;-71
2021/04/28 12:36:42;;;;;;;5.85;3.60;;;;;;;;;;753208;182;919964;-72
2021/04/28 12:39:07;;;;;;;4.83;3.70;;;;;;;;;;760204;182;918990;-70
2021/04/28 12:41:33;;;;;;;5.13;3.50;;;;;;;;;;760659;181;918671;-71
2021/04/28 12:44:00;;;;;;;3.80;2.73;;;;;;;;;;752656;182;940924;-74
2021/04/28 12:46:26;;;;;;;5.93;3.07;;;;;;;;;;756628;182;910022;-69
2021/04/28 12:48:52;;;;;;;6.20;3.63;;;;;;;;;;765449;182;627745;-72
2021/04/28 12:51:18;;;;;;;6.70;3.23;;;;;;;;;;745815;184;1295842;-72
2021/04/28 12:53:44;;;;;;;5.63;3.33;;;;;;;;;;747324;185;623565;-71
2021/04/28 12:56:10;;;;;;;5.63;3.03;;;;;;;;;;739796;185;916669;-70
2021/04/28 12:58:42;;;;;;;8.10;5.10;;;;;;;;;;751621;182;920564;-71
2021/04/28 13:01:07;;;;;;;5.30;3.50;;;;;;;;;;752048;181;1012745;-75
2021/04/28 13:03:33;;;;;;;8.43;3.23;;;;;;;;;;758696;182;919461;-74
2021/04/28 13:05:59;;;;;;;4.40;3.10;;;;;;;;;;748494;182;905410;-70
2021/04/28 13:08:35;;;;;;;7.00;4.27;;;;;;;;;;741160;186;919526;-74
2021/04/28 13:11:02;;;;;;;7.13;3.40;;;;;;;;;;751671;182;1123658;-72
2021/04/28 13:13:28;;;;;;;5.90;3.30;;;;;;;;;;750738;183;916557;-71
2021/04/28 13:15:54;;;;;;;4.10;3.00;;;;;;;;;;764034;181;624179;-74
2021/04/28 13:18:19;;;;;;;7.43;2.90;;;;;;;;;;763627;182;638670;-75
2021/04/28 13:20:45;;;;;;;4.93;2.97;;;;;;;;;;749170;185;774568;-74
2021/04/28 13:23:12;;;;;;;5.10;3.30;;;;;;;;;;745180;186;862427;-81
2021/04/28 13:25:44;;;;;;;7.13;4.00;;;;;;;;;;729497;190;812293;-72
2021/04/28 13:28:16;;;;;;;6.60;2.97;;;;;;;;;;725094;190;918662;-72
2021/04/28 13:30:42;;;;;;;11.50;3.90;;;;;;;;;;739592;186;918519;-71
2021/04/28 13:33:07;;;;;;;13.70;3.90;;;;;;;;;;750578;185;919703;-72
2021/04/28 13:35:33;;;;;;;6.03;2.93;;;;;;;;;;742684;185;654561;-74
2021/04/28 13:38:01;;;;;;;4.13;2.57;;;;;;;;;;740016;185;1632936;-70
2021/04/28 13:40:38;;;;;;;4.60;3.20;;;;;;;;;;752143;185;919818;-70
2021/04/28 13:43:04;;;;;;;5.40;2.93;;;;;;;;;;739710;187;918374;-72
2021/04/28 13:45:30;;;;;;;15.47;4.03;;;;;;;;;;753486;182;919170;-70
2021/04/28 13:47:55;;;;;;;5.93;2.57;;;;;;;;;;751012;182;933418;-71
2021/04/28 13:50:21;;;;;;;6.63;2.90;;;;;;;;;;759547;182;920794;-71
2021/04/28 13:52:47;;;;;;;6.37;3.40;;;;;;;;;;754381;182;918901;-70
2021/04/28 13:55:13;;;;;;;5.60;3.40;;;;;;;;;;734079;189;1019355;-70
2021/04/28 13:57:39;;;;;;;5.43;2.73;;;;;;;;;;751309;181;918694;-71
2021/04/28 14:00:06;;;;;;;7.00;3.60;;;;;;;;;;767854;181;920465;-71
2021/04/28 14:02:31;;;;;;;3.77;2.80;;;;;;;;;;761748;182;920513;-66
2021/04/28 14:04:57;;;;;;;8.13;3.23;;;;;;;;;;753660;182;916069;-76
2021/04/28 14:07:23;;;;;;;6.83;3.40;;;;;;;;;;757245;181;627175;-69
2021/04/28 14:09:49;;;;;;;5.87;3.27;;;;;;;;;;759112;182;635764;-69